LFBD

Details ICAO LFBD (BOD)
Name Bordeaux Merignac
Region France
Timezone Europe/Paris (UTC+1.0)
Plans Departing 3275
Arriving 2884
Stats Elevation 166 ft / 51 m (AMSL)
Location 44.828700° -0.714790°
Runways 2
Magnetic Variation 0.338° E
Sunrise 2021-03-01 06:42:05 UTC / 2021-03-01 07:42:05 Local
Sunset 2021-03-01 17:51:15 UTC / 2021-03-01 18:51:15 Local
Advertisement - Login to hide

Runways

ID Width Length Bearing (true/mag) Surface Threshold Overrun Markings Lighting
05 148 ft / 45 m 10,181 ft / 3,103 m 45.35° / 45.01° ASPHALT 0 ft / 0 m 1,161 ft / 354 m APP CENTERLINE EDGE THRESHOLD TDZ REIL-OMNI
11 148 ft / 45 m 7,927 ft / 2,416 m 106.46° / 106.12° ASPHALT 0 ft / 0 m 1,204 ft / 367 m APP EDGE THRESHOLD TDZ REIL-OMNI
23 148 ft / 45 m 10,181 ft / 3,103 m 225.37° / 225.03° ASPHALT 0 ft / 0 m 1,289 ft / 393 m PREC-APP CENTERLINE EDGE THRESHOLD CALVERT-ILS TDZ REIL-OMNI
29 148 ft / 45 m 7,927 ft / 2,416 m 286.48° / 286.14° ASPHALT 0 ft / 0 m 1,204 ft / 367 m PREC-APP EDGE THRESHOLD TDZ REIL-OMNI

Approach Navaids

Runway Type Ident Frequency Range Bearing (true/mag) Slope Elevation
23 DME BD 110.30 MHz 18 nm / 33 km - - 207 ft / 63 m (AMSL)
23 LOC-ILS BD 110.30 MHz 18 nm / 33 km 225.36° / 225.02° - 166 ft / 51 m (AMSL)
23 GS BD 110.30 MHz 10 nm / 19 km 225.36° / 225.02° 3.00° 166 ft / 51 m (AMSL)
29 GS BEI 111.15 MHz 10 nm / 19 km 286.47° / 286.13° 3.00° 166 ft / 51 m (AMSL)
29 DME BEI 111.15 MHz 18 nm / 33 km - - 214 ft / 65 m (AMSL)
29 LOC-ILS BEI 111.15 MHz 18 nm / 33 km 286.47° / 286.13° - 166 ft / 51 m (AMSL)

Map

Weather


0- 5 10 15 20 25 30 35+ Temperature / °C

Clouds and Precipitation
Forecast for 2021-03-01 12:00 UTC. Updated 3 hours ago

Ground ~20,000 ft ~40,000 ft Winds

METAR

LFBD 011230Z AUTO 12010KT CAVOK 16/07 Q1023 NOSIG

TAF

TAF LFBD 011100Z 0112/0218 13010KT CAVOK TX18/0115Z TN06/0206Z= TAF LFBE 011100Z 0112/0212 12010KT CAVOK

Frequencies

Tower 118.30 MHz Merignac Tower
Recorded 131.15 MHz ATIS Merignac
Ground 121.90 MHz Merignac Ground
Approach 129.87 MHz Aquitaine Approach
Approach 121.20 MHz Merignac Approach
Warning: Do not use this data for real-world aviation or navigation. No guarantee of current accuracy is given.